You are listening to:
YBCG Brisbane Centre - Gold Coast City, Queensland, Australia

YBCG 081400Z AUTO 12009KT 9999 // SCT031 SCT062 23/19 Q1012

If stream doesn't start automatically press the play button
If stream stops then reload player then press play